Time;durP1;ratioP1;P1;durP2;ratioP2;P2;SDS_P1;SDS_P2;PMS_P1;PMS_P2;Temp;Humidity;BMP_temperature;BMP_pressure;BME280_temperature;BME280_humidity;BME280_pressure;Samples;Min_cycle;Max_cycle;Signal;HPM_P1;HPM_P2
2021/05/04 00:02:56;;;;;;;4.03;1.83;;;18.70;32.60;;;;;;8392707;28;20082;-46
2021/05/04 00:06:57;;;;;;;2.60;1.73;;;18.60;32.60;;;;;;8395408;28;20078;-45
2021/05/04 00:10:57;;;;;;;3.00;2.00;;;18.60;32.60;;;;;;8392297;28;20067;-46
2021/05/04 00:14:58;;;;;;;1.77;1.60;;;18.60;32.60;;;;;;8392164;28;20036;-48
2021/05/04 00:18:59;;;;;;;2.03;1.63;;;18.60;32.60;;;;;;8390490;28;20056;-45
2021/05/04 00:22:59;;;;;;;1.70;1.60;;;18.60;32.60;;;;;;8391948;28;20416;-45
2021/05/04 00:27:00;;;;;;;2.33;1.90;;;18.60;32.60;;;;;;8395751;28;20116;-48
2021/05/04 00:31:00;;;;;;;2.93;2.07;;;18.60;32.60;;;;;;8391462;28;20044;-45
2021/05/04 00:35:01;;;;;;;2.90;2.00;;;18.60;32.60;;;;;;8374721;28;20040;-44
2021/05/04 00:39:02;;;;;;;2.23;1.87;;;18.60;32.60;;;;;;8381988;28;20045;-47
2021/05/04 00:43:02;;;;;;;2.38;1.73;;;18.60;32.60;;;;;;8395773;28;20515;-47
2021/05/04 00:47:03;;;;;;;2.23;1.80;;;18.60;32.60;;;;;;8391490;28;20040;-46
2021/05/04 00:51:05;;;;;;;2.70;1.83;;;18.50;32.60;;;;;;8389664;28;20120;-47
2021/05/04 00:55:06;;;;;;;3.75;1.90;;;18.50;32.50;;;;;;8391566;28;20047;-50
2021/05/04 00:59:09;;;;;;;2.45;1.60;;;18.50;32.60;;;;;;8391139;28;20519;-46
2021/05/04 01:03:10;;;;;;;2.80;1.90;;;18.50;32.50;;;;;;8393850;28;20461;-49
2021/05/04 01:07:11;;;;;;;2.55;2.30;;;18.50;32.50;;;;;;8391108;28;20045;-46
2021/05/04 01:11:11;;;;;;;2.50;1.80;;;18.50;32.50;;;;;;8391474;28;20056;-46
2021/05/04 01:15:12;;;;;;;1.97;1.70;;;18.40;32.50;;;;;;8387946;28;20029;-50
2021/05/04 01:19:12;;;;;;;2.17;1.90;;;18.50;32.60;;;;;;8362069;28;20382;-49
2021/05/04 01:23:13;;;;;;;3.07;1.90;;;18.40;32.50;;;;;;8358117;28;20033;-47
2021/05/04 01:27:15;;;;;;;2.67;1.83;;;18.40;32.50;;;;;;8381898;28;20509;-48
2021/05/04 01:31:15;;;;;;;3.72;2.28;;;18.40;32.50;;;;;;8390657;28;20032;-47
2021/05/04 01:35:16;;;;;;;2.57;1.90;;;18.40;32.50;;;;;;8395038;28;20587;-46
2021/05/04 01:39:17;;;;;;;1.80;1.60;;;18.40;32.50;;;;;;8389124;28;20515;-48
2021/05/04 01:43:18;;;;;;;2.00;1.80;;;18.40;32.50;;;;;;8390492;28;20029;-48
2021/05/04 01:47:18;;;;;;;2.20;2.00;;;18.40;32.50;;;;;;8390286;28;20047;-46
2021/05/04 01:51:19;;;;;;;2.03;1.80;;;18.30;32.50;;;;;;8387337;28;20045;-46
2021/05/04 01:55:20;;;;;;;1.90;1.60;;;18.30;32.40;;;;;;8401314;28;20064;-45
2021/05/04 01:59:22;;;;;;;2.15;1.85;;;18.30;32.50;;;;;;8396657;28;20049;-44
2021/05/04 02:03:23;;;;;;;2.05;1.70;;;18.30;32.40;;;;;;8394871;28;20044;-47
2021/05/04 02:07:24;;;;;;;2.50;2.10;;;18.30;32.50;;;;;;8396645;28;20028;-45
2021/05/04 02:11:24;;;;;;;1.87;1.67;;;18.30;32.50;;;;;;8400832;28;20032;-46
2021/05/04 02:15:25;;;;;;;2.90;2.20;;;18.30;32.50;;;;;;8394239;28;20040;-46
2021/05/04 02:19:26;;;;;;;2.20;1.80;;;18.30;32.50;;;;;;8395192;28;20049;-46
2021/05/04 02:23:26;;;;;;;2.10;1.80;;;18.20;32.40;;;;;;8395855;28;20109;-46
2021/05/04 02:27:27;;;;;;;2.37;1.73;;;18.30;32.50;;;;;;8396533;28;20086;-48
2021/05/04 02:31:27;;;;;;;2.23;2.00;;;18.30;32.60;;;;;;8398301;28;20529;-47
2021/05/04 02:35:28;;;;;;;2.20;1.87;;;18.30;32.50;;;;;;8395340;28;20024;-45
2021/05/04 02:39:28;;;;;;;2.50;2.07;;;18.20;32.40;;;;;;8393408;28;20039;-49
2021/05/04 02:43:29;;;;;;;4.27;1.97;;;18.20;32.40;;;;;;8394517;28;20055;-45
2021/05/04 02:47:30;;;;;;;3.37;1.97;;;18.20;32.40;;;;;;8399583;28;20516;-45
2021/05/04 02:51:30;;;;;;;2.43;1.97;;;18.20;32.40;;;;;;8393235;28;20485;-44
2021/05/04 02:55:31;;;;;;;2.20;1.70;;;18.20;32.40;;;;;;8394563;28;20033;-48
2021/05/04 02:59:31;;;;;;;2.07;1.80;;;18.20;32.40;;;;;;8394677;28;20036;-44
2021/05/04 03:03:35;;;;;;;2.30;2.00;;;18.20;32.40;;;;;;8393157;28;20029;-47
2021/05/04 03:07:36;;;;;;;4.22;1.73;;;18.20;32.40;;;;;;8344062;28;20037;-50
2021/05/04 03:11:36;;;;;;;1.83;1.73;;;18.20;32.40;;;;;;8381963;28;20032;-46
2021/05/04 03:15:37;;;;;;;1.60;1.50;;;18.10;32.40;;;;;;8392306;28;20032;-47
2021/05/04 03:19:37;;;;;;;2.17;1.70;;;18.10;32.40;;;;;;8393979;28;20052;-47
2021/05/04 03:23:38;;;;;;;4.43;1.97;;;18.10;32.50;;;;;;8398524;28;20122;-48
2021/05/04 03:27:39;;;;;;;1.90;1.70;;;18.10;32.50;;;;;;8392255;28;20033;-48
2021/05/04 03:31:39;;;;;;;1.97;1.70;;;18.10;32.50;;;;;;8379265;28;20493;-48
2021/05/04 03:35:40;;;;;;;2.17;1.97;;;18.10;32.50;;;;;;8365684;28;20444;-46
2021/05/04 03:39:41;;;;;;;3.03;1.87;;;18.10;32.50;;;;;;8396190;28;20033;-50
2021/05/04 03:43:41;;;;;;;2.67;1.83;;;18.10;32.50;;;;;;8393183;28;20404;-46
2021/05/04 03:47:44;;;;;;;2.60;1.97;;;18.10;32.50;;;;;;8393474;28;20037;-46
2021/05/04 03:51:44;;;;;;;2.90;1.70;;;18.10;32.50;;;;;;8391369;28;20114;-47
2021/05/04 03:55:46;;;;;;;1.93;1.73;;;18.00;32.40;;;;;;8397348;28;20040;-47
2021/05/04 03:59:46;;;;;;;;;;;18.10;32.50;;;;;;8361248;28;20064;-48
2021/05/04 04:03:50;;;;;;;1.88;1.73;;;18.00;32.40;;;;;;8380648;28;20327;-48
2021/05/04 04:07:51;;;;;;;2.75;1.80;;;18.00;32.40;;;;;;8392486;28;20024;-48
2021/05/04 04:11:51;;;;;;;2.17;1.60;;;18.00;32.40;;;;;;8391996;28;20837;-48
2021/05/04 04:15:52;;;;;;;2.13;1.80;;;18.00;32.40;;;;;;8394378;28;20439;-47
2021/05/04 04:19:53;;;;;;;1.97;1.57;;;18.00;32.40;;;;;;8391898;28;20036;-48
2021/05/04 04:23:53;;;;;;;2.37;1.63;;;18.00;32.50;;;;;;8392105;28;20024;-45
2021/05/04 04:27:54;;;;;;;1.70;1.40;;;18.00;32.50;;;;;;8393385;28;20377;-45
2021/05/04 04:31:54;;;;;;;1.83;1.53;;;18.00;32.50;;;;;;8398951;28;20028;-47
2021/05/04 04:35:55;;;;;;;2.17;1.93;;;18.00;32.50;;;;;;8394087;28;20047;-46
2021/05/04 04:39:56;;;;;;;1.63;1.53;;;18.00;32.40;;;;;;8391161;28;20041;-47
2021/05/04 04:43:56;;;;;;;2.93;2.17;;;18.00;32.50;;;;;;8391769;28;20032;-48
2021/05/04 04:47:57;;;;;;;1.90;1.70;;;18.00;32.50;;;;;;8391248;28;20497;-48
2021/05/04 04:51:57;;;;;;;2.20;1.77;;;18.00;32.50;;;;;;8360949;27;20033;-47
2021/05/04 04:55:58;;;;;;;2.17;1.93;;;18.00;32.50;;;;;;8382229;28;20052;-46
2021/05/04 04:59:59;;;;;;;2.00;1.60;;;18.00;32.40;;;;;;8391149;28;20508;-47
2021/05/04 05:04:01;;;;;;;2.53;2.33;;;18.00;32.50;;;;;;8389486;28;20059;-47
2021/05/04 05:08:01;;;;;;;2.00;1.83;;;18.00;32.50;;;;;;8395682;28;20048;-46
2021/05/04 05:12:06;;;;;;;1.80;1.60;;;17.90;32.50;;;;;;8337160;28;20029;-47
2021/05/04 05:16:06;;;;;;;1.80;1.70;;;17.90;32.40;;;;;;8326142;28;20452;-47
2021/05/04 05:20:08;;;;;;;2.37;1.83;;;17.90;32.40;;;;;;8333824;28;20029;-48
2021/05/04 05:24:08;;;;;;;2.30;1.90;;;17.90;32.40;;;;;;8386583;28;20124;-48
2021/05/04 05:28:09;;;;;;;2.10;1.83;;;17.90;32.40;;;;;;8394252;28;20039;-47
2021/05/04 05:32:10;;;;;;;1.97;1.67;;;17.90;32.40;;;;;;8397411;28;20202;-45
2021/05/04 05:36:10;;;;;;;2.10;1.83;;;17.90;32.40;;;;;;8395466;28;20044;-46
2021/05/04 05:40:11;;;;;;;2.43;1.97;;;17.90;32.40;;;;;;8395578;28;20500;-47
2021/05/04 05:44:13;;;;;;;1.83;1.73;;;17.90;32.40;;;;;;8368383;28;20025;-47
2021/05/04 05:48:14;;;;;;;2.40;2.10;;;17.90;32.40;;;;;;8388475;28;20051;-46
2021/05/04 05:52:15;;;;;;;5.00;2.53;;;17.90;32.40;;;;;;8396101;28;20056;-46
2021/05/04 05:56:15;;;;;;;3.00;1.90;;;17.90;32.40;;;;;;8396523;28;20493;-48
2021/05/04 06:00:18;;;;;;;2.30;1.80;;;17.90;32.40;;;;;;8399415;28;20032;-50
2021/05/04 06:04:18;;;;;;;1.83;1.70;;;17.90;32.40;;;;;;8366827;28;20035;-49
2021/05/04 06:08:19;;;;;;;2.87;2.00;;;17.90;32.40;;;;;;8344958;28;20049;-47
2021/05/04 06:12:20;;;;;;;2.27;1.83;;;17.90;32.40;;;;;;8366806;28;20064;-50
2021/05/04 06:16:20;;;;;;;3.07;1.77;;;17.90;32.40;;;;;;8397192;28;20040;-47
2021/05/04 06:20:21;;;;;;;2.37;1.80;;;17.90;32.40;;;;;;8399304;28;20046;-45
2021/05/04 06:24:22;;;;;;;1.53;1.43;;;17.90;32.40;;;;;;8394158;28;20037;-48
2021/05/04 06:28:22;;;;;;;2.20;1.77;;;17.90;32.40;;;;;;8395841;28;20348;-46
2021/05/04 06:32:25;;;;;;;2.90;1.90;;;17.90;32.40;;;;;;8376085;28;20033;-52
2021/05/04 06:36:27;;;;;;;2.75;1.83;;;17.90;32.50;;;;;;8365006;28;20037;-47
2021/05/04 06:40:27;;;;;;;2.30;1.83;;;17.90;32.50;;;;;;8373881;28;20040;-50
2021/05/04 06:44:28;;;;;;;2.57;2.33;;;17.90;32.50;;;;;;8395665;28;20121;-47
2021/05/04 06:48:28;;;;;;;3.93;2.20;;;17.90;32.50;;;;;;8393298;28;20029;-50
2021/05/04 06:52:29;;;;;;;2.83;1.93;;;17.90;32.50;;;;;;8399621;28;20029;-48
2021/05/04 06:56:29;;;;;;;2.50;2.10;;;17.90;33.10;;;;;;8394698;28;20052;-48
2021/05/04 07:00:30;;;;;;;2.97;2.03;;;17.90;32.50;;;;;;8392872;28;20064;-48
2021/05/04 07:04:30;;;;;;;4.53;1.90;;;17.90;32.60;;;;;;8394405;28;20045;-50
2021/05/04 07:08:31;;;;;;;2.17;1.73;;;17.90;32.60;;;;;;8394430;28;20047;-49
2021/05/04 07:12:31;;;;;;;2.03;1.87;;;17.90;32.60;;;;;;8397197;28;20040;-51
2021/05/04 07:16:32;;;;;;;2.97;1.63;;;17.90;32.60;;;;;;8394288;28;20794;-49
2021/05/04 07:20:32;;;;;;;2.43;2.00;;;17.90;32.60;;;;;;8394509;28;20040;-49
2021/05/04 07:24:33;;;;;;;2.30;1.83;;;17.90;32.60;;;;;;8383241;27;20117;-46
2021/05/04 07:28:33;;;;;;;2.90;2.30;;;17.90;32.70;;;;;;8332604;28;20033;-47
2021/05/04 07:32:34;;;;;;;2.20;1.83;;;17.90;32.70;;;;;;8377837;28;20090;-49
2021/05/04 07:36:35;;;;;;;2.20;1.80;;;17.90;32.70;;;;;;8373884;28;20509;-47
2021/05/04 07:40:37;;;;;;;2.80;2.10;;;17.90;32.70;;;;;;8369784;28;20052;-50
2021/05/04 07:44:37;;;;;;;2.20;1.90;;;17.90;32.70;;;;;;8397616;28;20033;-47
2021/05/04 07:48:38;;;;;;;4.63;2.10;;;17.90;32.70;;;;;;8391196;28;20124;-47
2021/05/04 07:52:39;;;;;;;2.63;2.10;;;17.90;32.70;;;;;;8370460;28;20056;-50
2021/05/04 07:56:39;;;;;;;5.27;2.33;;;17.90;32.80;;;;;;8372859;28;20131;-51
2021/05/04 08:00:41;;;;;;;2.97;2.27;;;17.90;32.80;;;;;;8386004;28;20044;-48
2021/05/04 08:04:41;;;;;;;;;;;17.90;32.80;;;;;;8378678;28;20079;-49
2021/05/04 08:08:42;;;;;;;2.42;2.05;;;17.90;32.80;;;;;;8392520;28;19916;-47
2021/05/04 08:12:42;;;;;;;2.00;1.60;;;17.90;32.80;;;;;;8391178;28;20040;-52
2021/05/04 08:16:43;;;;;;;2.97;2.10;;;17.90;32.80;;;;;;8386034;28;20517;-46
2021/05/04 08:21:02;;;;;;;2.77;2.13;;;17.90;32.80;;;;;;8363371;28;20044;-48
2021/05/04 08:25:04;;;;;;;4.60;2.03;;;18.00;32.80;;;;;;8390399;28;20111;-46
2021/05/04 08:29:05;;;;;;;3.03;2.00;;;18.00;32.80;;;;;;8391863;28;20128;-51
2021/05/04 08:33:05;;;;;;;6.80;2.78;;;18.00;32.80;;;;;;8376489;28;20027;-47
2021/05/04 08:37:06;;;;;;;3.67;2.33;;;18.00;32.80;;;;;;8362569;28;20068;-49
2021/05/04 08:41:07;;;;;;;3.53;2.13;;;18.00;32.80;;;;;;8396438;28;20040;-50
2021/05/04 08:45:08;;;;;;;;;;;18.00;32.80;;;;;;8390566;28;20037;-49
2021/05/04 08:49:12;;;;;;;3.30;1.80;;;18.00;32.80;;;;;;8390837;28;20376;-47
2021/05/04 08:53:13;;;;;;;4.70;2.05;;;18.00;32.80;;;;;;8391403;28;20362;-47
2021/05/04 08:57:14;;;;;;;3.20;2.05;;;18.00;32.80;;;;;;8394026;28;20397;-46
2021/05/04 09:01:15;;;;;;;3.55;2.10;;;18.00;32.80;;;;;;8390419;28;20052;-47
2021/05/04 09:05:17;;;;;;;2.27;2.00;;;18.10;32.90;;;;;;8390958;28;20037;-47
2021/05/04 09:09:29;;;;;;;2.90;2.05;;;18.10;32.80;;;;;;8389244;28;20037;-48
2021/05/04 09:13:37;;;;;;;2.78;2.00;;;18.10;32.80;;;;;;8391035;28;20492;-47
2021/05/04 09:17:47;;;;;;;3.28;2.00;;;18.10;32.80;;;;;;8373593;28;20061;-46
2021/05/04 09:21:48;;;;;;;2.65;2.08;;;18.10;32.80;;;;;;8387107;28;20076;-47
2021/05/04 09:25:48;;;;;;;3.17;2.03;;;18.10;32.80;;;;;;8390913;28;20128;-49
2021/05/04 09:29:56;;;;;;;2.57;2.07;;;18.10;32.80;;;;;;8367469;28;20485;-48
2021/05/04 09:34:08;;;;;;;3.08;2.00;;;18.10;32.80;;;;;;8389422;28;20438;-49
2021/05/04 09:38:19;;;;;;;2.63;1.95;;;18.10;32.80;;;;;;8361969;28;20045;-48
2021/05/04 09:42:20;;;;;;;2.67;1.93;;;18.20;32.80;;;;;;8382303;28;20032;-48
2021/05/04 09:46:41;;;;;;;3.35;2.05;;;18.20;32.80;;;;;;8390436;28;20048;-48
2021/05/04 09:50:59;;;;;;;3.20;2.30;;;18.20;32.80;;;;;;8390387;28;20568;-50
2021/05/04 09:55:08;;;;;;;2.88;2.40;;;18.10;32.80;;;;;;8388436;28;20072;-46
2021/05/04 09:59:09;;;;;;;2.72;2.10;;;18.20;32.80;;;;;;8376895;28;20354;-50
2021/05/04 10:03:10;;;;;;;2.23;2.03;;;18.20;32.70;;;;;;8354215;28;20060;-49
2021/05/04 10:07:11;;;;;;;2.45;2.10;;;18.20;32.70;;;;;;8323598;28;20406;-47
2021/05/04 10:11:18;;;;;;;2.22;2.00;;;18.20;32.70;;;;;;8331643;28;20029;-47
2021/05/04 10:15:18;;;;;;;2.13;1.65;;;18.20;32.70;;;;;;8392028;28;20028;-50
2021/05/04 10:19:19;;;;;;;2.60;2.13;;;18.20;32.70;;;;;;8395786;28;20585;-47
2021/05/04 10:23:21;;;;;;;3.37;2.03;;;18.20;32.70;;;;;;8395561;28;20508;-48
2021/05/04 10:27:23;;;;;;;2.70;1.90;;;18.20;32.70;;;;;;8366652;28;20047;-47
2021/05/04 10:31:34;;;;;;;1.85;1.73;;;18.30;32.60;;;;;;8362699;28;20021;-46
2021/05/04 10:35:49;;;;;;;2.67;1.73;;;18.30;32.60;;;;;;8387985;28;20369;-50
2021/05/04 10:39:49;;;;;;;2.13;1.95;;;18.30;32.60;;;;;;8393748;28;20079;-47
2021/05/04 10:43:59;;;;;;;2.97;1.87;;;18.30;32.60;;;;;;8394860;28;20366;-49
2021/05/04 10:48:03;;;;;;;3.03;1.90;;;18.30;32.60;;;;;;8395084;28;20131;-51
2021/05/04 10:52:04;;;;;;;2.85;1.80;;;18.30;32.50;;;;;;8393743;28;20040;-47
2021/05/04 10:56:07;;;;;;;1.97;1.77;;;18.40;32.50;;;;;;8398659;28;20048;-52
2021/05/04 11:00:09;;;;;;;2.28;2.08;;;18.40;32.50;;;;;;8393005;28;20105;-47
2021/05/04 11:04:10;;;;;;;2.25;1.75;;;18.40;32.60;;;;;;8380041;28;20094;-51
2021/05/04 11:08:11;;;;;;;3.20;1.97;;;18.40;32.50;;;;;;8348974;27;20116;-47
2021/05/04 11:12:37;;;;;;;2.00;1.80;;;18.40;32.50;;;;;;8390597;28;20037;-47
2021/05/04 11:16:46;;;;;;;2.05;1.83;;;18.40;32.50;;;;;;8394160;28;20076;-49
2021/05/04 11:20:46;;;;;;;2.10;1.90;;;18.50;32.60;;;;;;8371189;28;20037;-50
2021/05/04 11:24:49;;;;;;;2.77;1.80;;;18.50;32.60;;;;;;8371998;28;20089;-47
2021/05/04 11:29:18;;;;;;;1.83;1.63;;;18.50;32.50;;;;;;8393528;28;20036;-49
2021/05/04 11:33:27;;;;;;;2.10;1.90;;;18.50;32.50;;;;;;8394490;28;20028;-46
2021/05/04 11:37:29;;;;;;;2.53;1.85;;;18.50;32.50;;;;;;8361091;28;20057;-46
2021/05/04 11:41:29;;;;;;;3.90;2.15;;;18.50;32.50;;;;;;8383637;28;20044;-51
2021/05/04 11:45:34;;;;;;;2.50;1.90;;;18.50;32.50;;;;;;8379625;28;20072;-47
2021/05/04 11:49:34;;;;;;;2.40;1.90;;;18.50;32.40;;;;;;8363890;28;20431;-50
2021/05/04 11:53:35;;;;;;;2.67;2.40;;;18.60;32.40;;;;;;8376297;28;20029;-46
2021/05/04 11:57:36;;;;;;;1.87;1.67;;;18.60;32.40;;;;;;8388252;28;20439;-47
2021/05/04 12:01:43;;;;;;;2.65;2.08;;;18.60;32.30;;;;;;8392810;28;20036;-47
2021/05/04 12:05:45;;;;;;;2.60;1.90;;;18.60;32.30;;;;;;8370230;28;20041;-47
2021/05/04 12:09:45;;;;;;;2.58;1.80;;;18.60;32.30;;;;;;8393311;28;20027;-48
2021/05/04 12:13:57;;;;;;;2.60;1.60;;;18.60;32.30;;;;;;8347124;28;20371;-49
2021/05/04 12:18:02;;;;;;;1.70;1.58;;;18.60;32.30;;;;;;8350502;28;20500;-49
2021/05/04 12:22:02;;;;;;;2.15;1.95;;;18.60;32.30;;;;;;8390884;28;20036;-47
2021/05/04 12:26:08;;;;;;;2.33;2.13;;;18.60;32.20;;;;;;8392390;28;20029;-48
2021/05/04 12:30:14;;;;;;;1.67;1.58;;;18.60;32.20;;;;;;8394725;28;20048;-47
2021/05/04 12:34:22;;;;;;;2.78;1.80;;;18.60;32.20;;;;;;8391751;28;20093;-50
2021/05/04 12:38:28;;;;;;;4.53;1.90;;;18.60;32.20;;;;;;8371671;28;20045;-48
2021/05/04 12:42:28;;;;;;;2.70;1.80;;;18.60;32.30;;;;;;8364129;28;20551;-48
2021/05/04 12:46:32;;;;;;;2.47;1.63;;;18.60;32.20;;;;;;8370348;28;20067;-50
2021/05/04 12:50:34;;;;;;;2.33;1.63;;;18.70;32.20;;;;;;8395858;28;20028;-47
2021/05/04 12:54:36;;;;;;;2.33;1.70;;;18.70;32.20;;;;;;8389768;28;20036;-48
2021/05/04 12:58:58;;;;;;;2.17;1.60;;;18.70;32.20;;;;;;8390950;28;20139;-47
2021/05/04 13:03:09;;;;;;;1.98;1.55;;;18.70;32.10;;;;;;8383347;28;20086;-46
2021/05/04 13:07:50;;;;;;;1.88;1.65;;;18.70;32.10;;;;;;8358925;28;20448;-47
2021/05/04 13:12:07;;;;;;;1.73;1.40;;;18.70;32.00;;;;;;8362395;28;20119;-46
2021/05/04 13:29:16;;;;;;;3.78;1.90;;;18.90;32.00;;;;;;8391173;28;20044;-47
2021/05/04 13:33:17;;;;;;;3.25;2.20;;;18.90;31.90;;;;;;8389235;28;20174;-48
2021/05/04 13:37:22;;;;;;;5.37;3.00;;;18.90;32.00;;;;;;8395233;28;20044;-49
2021/05/04 13:50:03;;;;;;;7.43;4.28;;;18.90;31.80;;;;;;8395157;28;20082;-47
2021/05/04 13:54:05;;;;;;;6.85;4.53;;;18.90;31.80;;;;;;8394935;28;20036;-48
2021/05/04 13:58:07;;;;;;;9.80;4.60;;;18.90;31.80;;;;;;8401452;28;20039;-47
2021/05/04 14:02:13;;;;;;;8.82;5.03;;;18.90;31.80;;;;;;8396204;28;20042;-46
2021/05/04 14:27:35;;;;;;;13.20;6.22;;;18.90;31.80;;;;;;8357217;27;20036;-47
2021/05/04 14:31:36;;;;;;;13.32;7.30;;;18.90;31.80;;;;;;8395349;28;20035;-51
2021/05/04 14:35:40;;;;;;;11.90;6.73;;;18.90;31.80;;;;;;8396750;28;20454;-46
2021/05/04 14:48:03;;;;;;;12.67;7.03;;;18.90;31.90;;;;;;8394762;28;20068;-46
2021/05/04 15:04:46;;;;;;;14.40;7.27;;;18.90;31.90;;;;;;8394959;28;20037;-49
2021/05/04 15:08:46;;;;;;;11.57;6.80;;;18.90;31.90;;;;;;8394323;28;20560;-47
2021/05/04 15:12:47;;;;;;;11.23;6.30;;;18.90;31.90;;;;;;8386886;28;20068;-47
2021/05/04 15:16:50;;;;;;;11.10;6.13;;;18.90;32.50;;;;;;8365272;28;20485;-48
2021/05/04 15:24:57;;;;;;;10.32;6.05;;;18.90;31.90;;;;;;8379927;28;20466;-47
2021/05/04 15:28:58;;;;;;;10.43;6.57;;;19.00;32.00;;;;;;8391424;28;20045;-47
2021/05/04 15:33:01;;;;;;;15.13;6.60;;;18.90;32.00;;;;;;8392014;28;20021;-46
2021/05/04 15:37:02;;;;;;;11.32;6.40;;;18.90;32.00;;;;;;8394865;28;20283;-49
2021/05/04 15:41:03;;;;;;;12.40;6.33;;;18.90;32.00;;;;;;8367449;28;20033;-46
2021/05/04 15:45:05;;;;;;;11.93;6.77;;;18.90;32.00;;;;;;8374449;27;20044;-48
2021/05/04 16:09:48;;;;;;;11.27;5.68;;;19.00;32.20;;;;;;8353567;28;20059;-47
2021/05/04 16:13:51;;;;;;;10.63;5.63;;;18.90;32.20;;;;;;8349564;28;20033;-52
2021/05/04 16:17:52;;;;;;;9.65;5.45;;;18.90;32.10;;;;;;8383228;28;20079;-47
2021/05/04 16:21:57;;;;;;;9.95;5.82;;;19.00;32.30;;;;;;8360302;28;20485;-50
2021/05/04 16:26:12;;;;;;;12.60;5.35;;;18.90;32.20;;;;;;8392223;28;20119;-49
2021/05/04 16:30:17;;;;;;;9.73;5.47;;;18.90;32.30;;;;;;8390149;28;20039;-47
2021/05/04 16:34:18;;;;;;;9.57;5.10;;;18.90;32.30;;;;;;8396041;28;20083;-51
2021/05/04 16:38:19;;;;;;;8.63;5.50;;;18.90;32.30;;;;;;8391097;27;20072;-47
2021/05/04 16:42:19;;;;;;;8.10;5.00;;;19.00;32.40;;;;;;8376519;28;20032;-50
2021/05/04 16:46:20;;;;;;;10.03;5.70;;;18.90;32.30;;;;;;8382734;28;20099;-46
2021/05/04 16:50:20;;;;;;;9.57;5.50;;;18.90;32.40;;;;;;8389079;28;20020;-47
2021/05/04 16:54:21;;;;;;;8.53;4.63;;;18.90;32.40;;;;;;8389261;28;20040;-48
2021/05/04 16:58:22;;;;;;;8.03;4.33;;;19.00;32.50;;;;;;8372000;28;20099;-46
2021/05/04 17:02:23;;;;;;;8.20;4.80;;;18.90;32.50;;;;;;8368667;28;20029;-45
2021/05/04 17:06:30;;;;;;;7.95;4.90;;;18.90;32.60;;;;;;8391768;28;20448;-46
2021/05/04 17:10:31;;;;;;;7.95;4.88;;;18.90;32.60;;;;;;8396089;28;20047;-46
2021/05/04 17:14:32;;;;;;;10.93;5.60;;;18.90;32.60;;;;;;8391867;28;20025;-46
2021/05/04 17:18:32;;;;;;;9.03;4.80;;;18.90;32.70;;;;;;8379755;28;20080;-45
2021/05/04 17:22:33;;;;;;;7.10;4.33;;;18.90;32.70;;;;;;8364839;28;20040;-47
2021/05/04 17:26:34;;;;;;;7.20;4.17;;;18.90;32.70;;;;;;8381104;28;20041;-45
2021/05/04 17:30:35;;;;;;;7.07;4.15;;;18.90;32.80;;;;;;8364826;28;20033;-46
2021/05/04 17:34:36;;;;;;;10.63;4.90;;;18.90;32.80;;;;;;8381065;28;20442;-49
2021/05/04 17:38:37;;;;;;;7.60;4.22;;;18.90;32.90;;;;;;8372480;28;20037;-46
2021/05/04 17:42:37;;;;;;;9.20;4.50;;;18.90;32.90;;;;;;8394666;28;20037;-47
2021/05/04 17:46:38;;;;;;;9.03;4.50;;;18.90;32.90;;;;;;8332714;28;20398;-46
2021/05/04 17:50:39;;;;;;;6.30;3.83;;;18.90;33.00;;;;;;8352361;28;20128;-47
2021/05/04 17:54:40;;;;;;;5.70;3.63;;;18.90;33.00;;;;;;8375083;28;20404;-47
2021/05/04 17:58:41;;;;;;;6.17;3.97;;;18.90;33.00;;;;;;8396671;28;20033;-44
2021/05/04 18:02:42;;;;;;;6.93;4.20;;;18.90;33.00;;;;;;8400770;28;20037;-47
2021/05/04 18:06:44;;;;;;;8.93;4.57;;;18.90;33.00;;;;;;8393956;28;20036;-48
2021/05/04 18:10:44;;;;;;;5.78;3.97;;;18.90;33.00;;;;;;8393662;28;20046;-47
2021/05/04 18:14:55;;;;;;;5.80;3.97;;;18.90;33.00;;;;;;8395012;28;20031;-46
2021/05/04 18:23:14;;;;;;;7.03;4.28;;;18.90;33.10;;;;;;8381086;28;20036;-46
2021/05/04 18:27:15;;;;;;;6.67;4.27;;;18.90;33.10;;;;;;8382544;28;20370;-46
2021/05/04 18:31:20;;;;;;;7.73;4.30;;;18.90;33.20;;;;;;8396114;28;20036;-47
2021/05/04 18:35:23;;;;;;;4.38;3.72;;;18.90;33.20;;;;;;8394597;28;20028;-47
2021/05/04 18:55:03;;;;;;;7.65;4.28;;;18.90;33.20;;;;;;8395476;28;20102;-47
2021/05/04 20:12:53;;;;;;;4.63;3.40;;;18.80;33.70;;;;;;8395483;28;20060;-47
2021/05/04 20:16:55;;;;;;;4.35;3.28;;;18.80;33.70;;;;;;8392256;28;20566;-47
2021/05/04 20:20:56;;;;;;;4.13;3.10;;;18.90;33.80;;;;;;8392272;28;20033;-50
2021/05/04 20:24:57;;;;;;;5.05;3.30;;;18.90;33.70;;;;;;8390273;28;20561;-47
2021/05/04 20:28:57;;;;;;;4.63;2.87;;;18.80;33.70;;;;;;8380960;28;20029;-51
2021/05/04 20:32:59;;;;;;;5.03;3.30;;;18.90;33.70;;;;;;8359048;28;20068;-48
2021/05/04 20:37:00;;;;;;;4.82;3.05;;;18.80;33.70;;;;;;8390372;28;20175;-50
2021/05/04 20:41:01;;;;;;;5.20;3.27;;;18.80;33.70;;;;;;8381097;28;20087;-48
2021/05/04 20:45:03;;;;;;;3.97;3.00;;;18.80;33.70;;;;;;8358756;28;20040;-51
2021/05/04 20:49:03;;;;;;;4.28;2.72;;;18.80;33.60;;;;;;8395922;28;20041;-49
2021/05/04 20:53:04;;;;;;;3.93;2.70;;;18.80;33.70;;;;;;8367065;28;20409;-49
2021/05/04 20:57:05;;;;;;;4.80;3.28;;;18.90;33.70;;;;;;8371866;28;20147;-49
2021/05/04 21:01:05;;;;;;;4.60;2.73;;;18.90;33.70;;;;;;8391225;28;20028;-49
2021/05/04 21:05:07;;;;;;;4.30;3.07;;;18.90;33.60;;;;;;8395714;28;20028;-53
2021/05/04 21:09:10;;;;;;;;;;;18.80;33.60;;;;;;8389945;28;20063;-48
2021/05/04 21:13:11;;;;;;;4.03;2.55;;;18.80;33.60;;;;;;8392278;28;20267;-49
2021/05/04 21:17:13;;;;;;;4.87;3.00;;;18.80;33.60;;;;;;8390817;28;20083;-50
2021/05/04 21:21:20;;;;;;;3.60;2.70;;;18.80;33.60;;;;;;8391552;28;20051;-50
2021/05/04 21:25:35;;;;;;;3.35;2.88;;;18.80;33.60;;;;;;8395591;28;20033;-50
2021/05/04 21:29:36;;;;;;;4.13;3.30;;;18.80;33.60;;;;;;8391014;28;20432;-52
2021/05/04 21:33:36;;;;;;;4.47;2.73;;;18.80;33.60;;;;;;8389055;28;20041;-51
2021/05/04 21:37:37;;;;;;;4.17;2.53;;;18.80;33.60;;;;;;8390818;28;20523;-50
2021/05/04 21:41:38;;;;;;;4.43;2.70;;;18.80;33.50;;;;;;8395296;28;20036;-50
2021/05/04 21:45:38;;;;;;;4.43;2.87;;;18.80;33.50;;;;;;8388170;28;20076;-50
2021/05/04 21:49:39;;;;;;;3.17;2.40;;;18.80;33.60;;;;;;8390458;28;20094;-47
2021/05/04 21:53:39;;;;;;;4.03;2.53;;;18.80;33.60;;;;;;8390552;28;20507;-51
2021/05/04 21:57:40;;;;;;;3.33;2.53;;;18.80;33.60;;;;;;8389946;28;20040;-50
2021/05/04 22:01:41;;;;;;;3.20;2.60;;;18.80;33.60;;;;;;8393089;28;20029;-50
2021/05/04 22:05:42;;;;;;;3.92;2.90;;;18.80;33.70;;;;;;8389717;28;20053;-50
2021/05/04 22:09:42;;;;;;;3.87;2.33;;;18.80;33.70;;;;;;8391023;28;20484;-51
2021/05/04 22:13:54;;;;;;;2.97;2.30;;;18.70;33.60;;;;;;8396484;28;20051;-49
2021/05/04 22:18:23;;;;;;;;;;;18.70;33.70;;;;;;8399992;28;20051;-49
2021/05/04 22:35:07;;;;;;;4.13;2.50;;;18.80;33.80;;;;;;8395191;28;20544;-49
2021/05/04 22:39:13;;;;;;;3.13;2.28;;;18.80;33.80;;;;;;8398548;28;20044;-48
2021/05/04 22:43:40;;;;;;;3.42;2.40;;;18.70;33.80;;;;;;8397163;28;20048;-52
2021/05/04 23:13:05;;;;;;;2.85;2.55;;;18.70;33.90;;;;;;8399589;28;20123;-50
2021/05/04 23:17:57;;;;;;;2.67;2.17;;;18.70;33.90;;;;;;8394804;28;20050;-48
2021/05/04 23:21:57;;;;;;;2.60;2.40;;;18.70;34.00;;;;;;8392752;28;20032;-48
2021/05/04 23:25:58;;;;;;;3.27;2.40;;;18.60;34.00;;;;;;8398536;28;20437;-50
2021/05/04 23:29:58;;;;;;;2.47;1.87;;;18.70;34.00;;;;;;8393647;28;20462;-53
2021/05/04 23:34:00;;;;;;;4.03;2.10;;;18.60;34.00;;;;;;8392394;28;20086;-48
2021/05/04 23:38:01;;;;;;;2.25;2.05;;;18.60;34.00;;;;;;8393637;28;20041;-47
2021/05/04 23:42:01;;;;;;;3.53;2.40;;;18.60;34.00;;;;;;8392086;28;20046;-48
2021/05/04 23:46:02;;;;;;;2.93;2.10;;;18.60;34.00;;;;;;8397878;28;20504;-49
2021/05/04 23:50:03;;;;;;;3.00;2.23;;;18.60;34.10;;;;;;8393060;28;20047;-48
2021/05/04 23:54:04;;;;;;;3.30;2.40;;;18.60;34.10;;;;;;8391252;28;20454;-48
2021/05/04 23:58:06;;;;;;;3.47;2.28;;;18.60;34.10;;;;;;8393484;28;20045;-48
